首页
METAR-TAF:

METAR-TAF

机场 :

空军基地

多瑙河畔圖爾恩, 奥地利

纬度: 48-19N, 经度: 016-07E, 海拔: 175米

METAR: 丢失

时间: 21:34 (20:34 UTC)

预报

该预报发布于9小时和19分钟前的11:15 UTC
预报有效从19日的 12点(UTC)到 19日的 21点(UTC)
风速15节,风向西转西南
能见度10公里或以上
少量云层高于3500英尺
多云层高于14000英尺
短暂存在
从 19日的 12点(UTC)到 19日的 18点(UTC)
风速18节,风向西,有时为28节阵风
几率 30% :
短暂存在
从 19日的 13点(UTC)到 19日的 18点(UTC)
能見度: 7000
少量云层高于4000英尺, 塔状积云.
多云层高于5000英尺
阵雨

TAF: LOXT 191115Z 1912/1921 24015KT 9999 FEW035 BKN140 TEMPO 1912/1918 26018G28KT PROB30 TEMPO 1913/1918 7000 SHRA FEW040TCU BKN050

超过4000个机场的气象观测和天气预报(METAR&TAF报告)。

可查询的气象台以黄色和红色小点在地图上表示。

将鼠标移到小点上方,可查看气象台名称。

然后点击查看天气观测和预报。

如需切换地图:点击带黑十字的绿色按钮放大地图;点击带横线的绿色按钮缩小地图;或者点击绿色箭头查看邻近地区的地图。


METAR-TAF: